sensor_id;sensor_type;location;lat;lon;timestamp;temperature;humidity
4376;DHT22;2202;50.866;12.750;2023-02-28T00:00:14;-1.10;90.60
4376;DHT22;2202;50.866;12.750;2023-02-28T00:02:42;-1.10;90.50
4376;DHT22;2202;50.866;12.750;2023-02-28T00:05:11;-1.10;90.30
4376;DHT22;2202;50.866;12.750;2023-02-28T00:07:39;-1.10;90.30
4376;DHT22;2202;50.866;12.750;2023-02-28T00:10:09;-1.20;90.30
4376;DHT22;2202;50.866;12.750;2023-02-28T00:12:37;-1.20;90.50
4376;DHT22;2202;50.866;12.750;2023-02-28T00:15:06;-1.30;90.60
4376;DHT22;2202;50.866;12.750;2023-02-28T00:17:33;-1.30;90.60
4376;DHT22;2202;50.866;12.750;2023-02-28T00:20:00;-1.20;90.60
4376;DHT22;2202;50.866;12.750;2023-02-28T00:22:38;-1.20;90.50
4376;DHT22;2202;50.866;12.750;2023-02-28T00:25:07;-1.20;90.30
4376;DHT22;2202;50.866;12.750;2023-02-28T00:27:34;-1.20;90.30
4376;DHT22;2202;50.866;12.750;2023-02-28T00:30:02;-1.20;90.30
4376;DHT22;2202;50.866;12.750;2023-02-28T00:32:29;-1.20;90.20
4376;DHT22;2202;50.866;12.750;2023-02-28T00:34:56;-1.30;90.00
4376;DHT22;2202;50.866;12.750;2023-02-28T00:37:23;-1.30;90.20
4376;DHT22;2202;50.866;12.750;2023-02-28T00:39:50;-1.40;90.30
4376;DHT22;2202;50.866;12.750;2023-02-28T00:42:18;-1.40;90.50
4376;DHT22;2202;50.866;12.750;2023-02-28T00:44:45;-1.40;90.70
4376;DHT22;2202;50.866;12.750;2023-02-28T00:47:12;-1.40;90.80
4376;DHT22;2202;50.866;12.750;2023-02-28T00:49:39;-1.40;90.80
4376;DHT22;2202;50.866;12.750;2023-02-28T00:52:06;-1.30;90.80
4376;DHT22;2202;50.866;12.750;2023-02-28T00:54:33;-1.30;90.80
4376;DHT22;2202;50.866;12.750;2023-02-28T00:56:59;-1.30;90.70
4376;DHT22;2202;50.866;12.750;2023-02-28T00:59:28;-1.40;90.70
4376;DHT22;2202;50.866;12.750;2023-02-28T01:01:55;-1.40;90.70
4376;DHT22;2202;50.866;12.750;2023-02-28T01:04:22;-1.40;90.80
4376;DHT22;2202;50.866;12.750;2023-02-28T01:06:48;-1.40;90.70
4376;DHT22;2202;50.866;12.750;2023-02-28T01:09:15;-1.40;90.40
4376;DHT22;2202;50.866;12.750;2023-02-28T01:11:42;-1.40;90.30
4376;DHT22;2202;50.866;12.750;2023-02-28T01:14:12;-1.40;90.30
4376;DHT22;2202;50.866;12.750;2023-02-28T01:16:40;-1.40;90.20
4376;DHT22;2202;50.866;12.750;2023-02-28T01:19:07;-1.40;90.00
4376;DHT22;2202;50.866;12.750;2023-02-28T01:21:35;-1.40;90.10
4376;DHT22;2202;50.866;12.750;2023-02-28T01:24:02;-1.50;90.10
4376;DHT22;2202;50.866;12.750;2023-02-28T01:26:29;-1.50;90.20
4376;DHT22;2202;50.866;12.750;2023-02-28T01:28:56;-1.50;90.40
4376;DHT22;2202;50.866;12.750;2023-02-28T01:31:23;-1.50;90.40
4376;DHT22;2202;50.866;12.750;2023-02-28T01:33:52;-1.50;90.20
4376;DHT22;2202;50.866;12.750;2023-02-28T01:36:20;-1.50;90.00
4376;DHT22;2202;50.866;12.750;2023-02-28T01:38:49;-1.60;89.60
4376;DHT22;2202;50.866;12.750;2023-02-28T01:41:18;-1.70;90.10
4376;DHT22;2202;50.866;12.750;2023-02-28T01:44:00;-1.70;90.20
4376;DHT22;2202;50.866;12.750;2023-02-28T01:46:30;-1.70;90.20
4376;DHT22;2202;50.866;12.750;2023-02-28T01:49:02;-1.90;90.40
4376;DHT22;2202;50.866;12.750;2023-02-28T01:51:35;-1.80;90.40
4376;DHT22;2202;50.866;12.750;2023-02-28T01:54:07;-1.90;90.30
4376;DHT22;2202;50.866;12.750;2023-02-28T01:56:42;-2.00;90.60
4376;DHT22;2202;50.866;12.750;2023-02-28T01:59:12;-2.00;90.70
4376;DHT22;2202;50.866;12.750;2023-02-28T02:01:41;-2.00;90.60
4376;DHT22;2202;50.866;12.750;2023-02-28T02:04:10;-2.00;90.60
4376;DHT22;2202;50.866;12.750;2023-02-28T02:06:40;-2.00;90.70
4376;DHT22;2202;50.866;12.750;2023-02-28T02:09:08;-2.10;90.70
4376;DHT22;2202;50.866;12.750;2023-02-28T02:11:36;-2.10;90.70
4376;DHT22;2202;50.866;12.750;2023-02-28T02:14:36;-2.10;90.70
4376;DHT22;2202;50.866;12.750;2023-02-28T02:17:14;-2.20;90.90
4376;DHT22;2202;50.866;12.750;2023-02-28T02:23:12;-2.30;91.00
4376;DHT22;2202;50.866;12.750;2023-02-28T02:25:50;-2.40;90.90
4376;DHT22;2202;50.866;12.750;2023-02-28T02:28:46;-2.40;90.90
4376;DHT22;2202;50.866;12.750;2023-02-28T02:31:42;-2.40;90.90
4376;DHT22;2202;50.866;12.750;2023-02-28T02:34:39;-2.50;91.10
4376;DHT22;2202;50.866;12.750;2023-02-28T02:37:19;-2.50;91.20
4376;DHT22;2202;50.866;12.750;2023-02-28T02:39:52;-2.50;91.20
4376;DHT22;2202;50.866;12.750;2023-02-28T02:42:24;-2.50;91.10
4376;DHT22;2202;50.866;12.750;2023-02-28T02:44:58;-2.60;91.20
4376;DHT22;2202;50.866;12.750;2023-02-28T02:47:28;-2.60;91.30
4376;DHT22;2202;50.866;12.750;2023-02-28T02:50:01;-2.60;91.30
4376;DHT22;2202;50.866;12.750;2023-02-28T02:52:33;-2.70;91.40
4376;DHT22;2202;50.866;12.750;2023-02-28T02:55:02;-2.80;91.60
4376;DHT22;2202;50.866;12.750;2023-02-28T02:57:33;-2.80;91.80
4376;DHT22;2202;50.866;12.750;2023-02-28T03:00:04;-2.80;91.90
4376;DHT22;2202;50.866;12.750;2023-02-28T03:02:34;-2.80;91.80
4376;DHT22;2202;50.866;12.750;2023-02-28T03:05:08;-2.80;91.60
4376;DHT22;2202;50.866;12.750;2023-02-28T03:07:38;-2.80;91.70
4376;DHT22;2202;50.866;12.750;2023-02-28T03:10:30;-2.80;91.70
4376;DHT22;2202;50.866;12.750;2023-02-28T03:13:08;-2.80;91.90
4376;DHT22;2202;50.866;12.750;2023-02-28T03:15:51;-2.80;91.90
4376;DHT22;2202;50.866;12.750;2023-02-28T03:18:25;-2.90;92.00
4376;DHT22;2202;50.866;12.750;2023-02-28T03:21:02;-2.90;92.50
4376;DHT22;2202;50.866;12.750;2023-02-28T03:23:38;-2.90;92.70
4376;DHT22;2202;50.866;12.750;2023-02-28T03:26:10;-2.80;92.60
4376;DHT22;2202;50.866;12.750;2023-02-28T03:28:43;-2.80;92.60
4376;DHT22;2202;50.866;12.750;2023-02-28T03:31:18;-2.80;92.60
4376;DHT22;2202;50.866;12.750;2023-02-28T03:33:51;-2.80;92.50
4376;DHT22;2202;50.866;12.750;2023-02-28T03:36:25;-2.80;92.60
4376;DHT22;2202;50.866;12.750;2023-02-28T03:38:57;-2.80;92.80
4376;DHT22;2202;50.866;12.750;2023-02-28T03:41:31;-2.90;93.10
4376;DHT22;2202;50.866;12.750;2023-02-28T03:44:02;-2.80;93.20
4376;DHT22;2202;50.866;12.750;2023-02-28T03:46:35;-2.80;93.20
4376;DHT22;2202;50.866;12.750;2023-02-28T03:49:07;-2.80;93.10
4376;DHT22;2202;50.866;12.750;2023-02-28T03:51:40;-2.80;93.20
4376;DHT22;2202;50.866;12.750;2023-02-28T03:54:11;-2.70;93.30
4376;DHT22;2202;50.866;12.750;2023-02-28T03:56:42;-2.80;93.30
4376;DHT22;2202;50.866;12.750;2023-02-28T03:59:14;-2.80;93.40
4376;DHT22;2202;50.866;12.750;2023-02-28T04:01:43;-2.80;93.70
4376;DHT22;2202;50.866;12.750;2023-02-28T04:04:12;-2.80;93.70
4376;DHT22;2202;50.866;12.750;2023-02-28T04:06:41;-2.70;93.80
4376;DHT22;2202;50.866;12.750;2023-02-28T04:09:10;-2.70;93.80
4376;DHT22;2202;50.866;12.750;2023-02-28T04:11:39;-2.70;93.70
4376;DHT22;2202;50.866;12.750;2023-02-28T04:14:08;-2.70;93.80
4376;DHT22;2202;50.866;12.750;2023-02-28T04:16:37;-2.70;93.90
4376;DHT22;2202;50.866;12.750;2023-02-28T04:19:05;-2.60;93.90
4376;DHT22;2202;50.866;12.750;2023-02-28T04:21:34;-2.60;93.70
4376;DHT22;2202;50.866;12.750;2023-02-28T04:24:03;-2.50;93.70
4376;DHT22;2202;50.866;12.750;2023-02-28T04:26:31;-2.50;93.60
4376;DHT22;2202;50.866;12.750;2023-02-28T04:28:59;-2.50;93.70
4376;DHT22;2202;50.866;12.750;2023-02-28T04:31:26;-2.50;93.90
4376;DHT22;2202;50.866;12.750;2023-02-28T04:33:53;-2.50;93.90
4376;DHT22;2202;50.866;12.750;2023-02-28T04:36:20;-2.50;93.90
4376;DHT22;2202;50.866;12.750;2023-02-28T04:38:48;-2.50;94.00
4376;DHT22;2202;50.866;12.750;2023-02-28T04:41:17;-2.50;94.10
4376;DHT22;2202;50.866;12.750;2023-02-28T04:43:44;-2.50;94.40
4376;DHT22;2202;50.866;12.750;2023-02-28T04:46:10;-2.50;94.50
4376;DHT22;2202;50.866;12.750;2023-02-28T04:48:38;-2.40;94.40
4376;DHT22;2202;50.866;12.750;2023-02-28T04:51:07;-2.40;94.40
4376;DHT22;2202;50.866;12.750;2023-02-28T04:53:35;-2.30;94.40
4376;DHT22;2202;50.866;12.750;2023-02-28T04:56:02;-2.30;94.40
4376;DHT22;2202;50.866;12.750;2023-02-28T04:58:30;-2.20;94.40
4376;DHT22;2202;50.866;12.750;2023-02-28T05:01:01;-2.20;94.20
4376;DHT22;2202;50.866;12.750;2023-02-28T05:03:28;-2.20;94.20
4376;DHT22;2202;50.866;12.750;2023-02-28T05:05:55;-2.20;94.20
4376;DHT22;2202;50.866;12.750;2023-02-28T05:08:22;-2.20;94.20
4376;DHT22;2202;50.866;12.750;2023-02-28T05:10:49;-2.20;94.20
4376;DHT22;2202;50.866;12.750;2023-02-28T05:13:16;-2.20;94.20
4376;DHT22;2202;50.866;12.750;2023-02-28T05:15:44;-2.30;94.20
4376;DHT22;2202;50.866;12.750;2023-02-28T05:18:11;-2.30;94.40
4376;DHT22;2202;50.866;12.750;2023-02-28T05:20:38;-2.20;94.40
4376;DHT22;2202;50.866;12.750;2023-02-28T05:23:04;-2.30;94.20
4376;DHT22;2202;50.866;12.750;2023-02-28T05:25:31;-2.20;94.40
4376;DHT22;2202;50.866;12.750;2023-02-28T05:27:58;-2.20;94.40
4376;DHT22;2202;50.866;12.750;2023-02-28T05:30:25;-2.20;94.10
4376;DHT22;2202;50.866;12.750;2023-02-28T05:32:53;-2.20;94.20
4376;DHT22;2202;50.866;12.750;2023-02-28T05:35:20;-2.30;94.30
4376;DHT22;2202;50.866;12.750;2023-02-28T05:37:47;-2.30;94.30
4376;DHT22;2202;50.866;12.750;2023-02-28T05:40:14;-2.20;94.40
4376;DHT22;2202;50.866;12.750;2023-02-28T05:42:41;-2.20;94.40
4376;DHT22;2202;50.866;12.750;2023-02-28T05:45:08;-2.20;94.30
4376;DHT22;2202;50.866;12.750;2023-02-28T05:47:36;-2.20;94.30
4376;DHT22;2202;50.866;12.750;2023-02-28T05:50:05;-2.30;94.10
4376;DHT22;2202;50.866;12.750;2023-02-28T05:52:32;-2.30;94.10
4376;DHT22;2202;50.866;12.750;2023-02-28T05:54:59;-2.30;94.20
4376;DHT22;2202;50.866;12.750;2023-02-28T05:57:26;-2.30;94.20
4376;DHT22;2202;50.866;12.750;2023-02-28T05:59:53;-2.20;94.00
4376;DHT22;2202;50.866;12.750;2023-02-28T06:02:19;-2.20;93.80
4376;DHT22;2202;50.866;12.750;2023-02-28T06:04:46;-2.20;93.60
4376;DHT22;2202;50.866;12.750;2023-02-28T06:07:15;-2.20;93.60
4376;DHT22;2202;50.866;12.750;2023-02-28T06:09:43;-2.30;93.50
4376;DHT22;2202;50.866;12.750;2023-02-28T06:12:10;-2.30;93.50
4376;DHT22;2202;50.866;12.750;2023-02-28T06:14:37;-2.30;93.60
4376;DHT22;2202;50.866;12.750;2023-02-28T06:17:04;-2.30;93.60
4376;DHT22;2202;50.866;12.750;2023-02-28T06:19:31;-2.30;93.50
4376;DHT22;2202;50.866;12.750;2023-02-28T06:21:58;-2.20;93.30
4376;DHT22;2202;50.866;12.750;2023-02-28T06:24:26;-2.30;93.30
4376;DHT22;2202;50.866;12.750;2023-02-28T06:26:54;-2.20;93.30
4376;DHT22;2202;50.866;12.750;2023-02-28T06:29:21;-2.20;93.20
4376;DHT22;2202;50.866;12.750;2023-02-28T06:31:48;-2.20;93.20
4376;DHT22;2202;50.866;12.750;2023-02-28T06:34:15;-2.20;93.20
4376;DHT22;2202;50.866;12.750;2023-02-28T06:36:42;-2.20;93.00
4376;DHT22;2202;50.866;12.750;2023-02-28T06:39:09;-2.20;93.00
4376;DHT22;2202;50.866;12.750;2023-02-28T06:41:37;-2.10;93.00
4376;DHT22;2202;50.866;12.750;2023-02-28T06:44:08;-2.10;92.80
4376;DHT22;2202;50.866;12.750;2023-02-28T06:46:38;-2.10;92.80
4376;DHT22;2202;50.866;12.750;2023-02-28T06:49:05;-2.10;92.90
4376;DHT22;2202;50.866;12.750;2023-02-28T06:51:34;-2.00;92.90
4376;DHT22;2202;50.866;12.750;2023-02-28T06:54:02;-1.90;93.30
4376;DHT22;2202;50.866;12.750;2023-02-28T06:56:29;-1.60;94.00
4376;DHT22;2202;50.866;12.750;2023-02-28T06:58:57;-1.40;93.00
4376;DHT22;2202;50.866;12.750;2023-02-28T07:01:24;-1.30;92.50
4376;DHT22;2202;50.866;12.750;2023-02-28T07:03:51;-1.20;91.70
4376;DHT22;2202;50.866;12.750;2023-02-28T07:06:18;-1.30;90.90
4376;DHT22;2202;50.866;12.750;2023-02-28T07:08:46;-1.30;90.50
4376;DHT22;2202;50.866;12.750;2023-02-28T07:11:13;-1.30;90.70
4376;DHT22;2202;50.866;12.750;2023-02-28T07:13:39;-1.00;91.20
4376;DHT22;2202;50.866;12.750;2023-02-28T07:16:10;-0.70;90.70
4376;DHT22;2202;50.866;12.750;2023-02-28T07:18:38;-0.30;89.80
4376;DHT22;2202;50.866;12.750;2023-02-28T07:21:06;-0.10;85.60
4376;DHT22;2202;50.866;12.750;2023-02-28T07:23:34;0.20;84.00
4376;DHT22;2202;50.866;12.750;2023-02-28T07:26:01;0.60;81.20
4376;DHT22;2202;50.866;12.750;2023-02-28T07:28:28;0.90;78.80
4376;DHT22;2202;50.866;12.750;2023-02-28T07:30:54;1.40;78.20
4376;DHT22;2202;50.866;12.750;2023-02-28T07:33:22;1.80;74.40
4376;DHT22;2202;50.866;12.750;2023-02-28T07:35:50;2.00;74.00
4376;DHT22;2202;50.866;12.750;2023-02-28T07:38:17;1.90;70.80
4376;DHT22;2202;50.866;12.750;2023-02-28T07:40:44;2.20;71.60
4376;DHT22;2202;50.866;12.750;2023-02-28T07:43:10;2.40;69.20
4376;DHT22;2202;50.866;12.750;2023-02-28T07:45:37;2.70;68.40
4376;DHT22;2202;50.866;12.750;2023-02-28T07:48:04;2.70;66.40
4376;DHT22;2202;50.866;12.750;2023-02-28T07:50:32;2.90;67.20
4376;DHT22;2202;50.866;12.750;2023-02-28T07:53:00;3.20;66.80
4376;DHT22;2202;50.866;12.750;2023-02-28T07:55:27;3.80;63.60
4376;DHT22;2202;50.866;12.750;2023-02-28T07:57:54;4.00;60.20
4376;DHT22;2202;50.866;12.750;2023-02-28T08:00:21;3.60;59.40
4376;DHT22;2202;50.866;12.750;2023-02-28T08:02:48;3.30;59.90
4376;DHT22;2202;50.866;12.750;2023-02-28T08:05:16;3.10;63.00
4376;DHT22;2202;50.866;12.750;2023-02-28T08:07:44;2.70;62.60
4376;DHT22;2202;50.866;12.750;2023-02-28T08:10:11;2.30;64.40
4376;DHT22;2202;50.866;12.750;2023-02-28T08:12:38;2.10;64.00
4376;DHT22;2202;50.866;12.750;2023-02-28T08:15:05;2.10;65.60
4376;DHT22;2202;50.866;12.750;2023-02-28T08:17:32;2.20;65.40
4376;DHT22;2202;50.866;12.750;2023-02-28T08:19:59;2.30;65.20
4376;DHT22;2202;50.866;12.750;2023-02-28T08:22:26;2.30;64.60
4376;DHT22;2202;50.866;12.750;2023-02-28T08:24:54;2.20;65.00
4376;DHT22;2202;50.866;12.750;2023-02-28T08:27:21;2.10;64.00
4376;DHT22;2202;50.866;12.750;2023-02-28T08:29:48;2.10;63.60
4376;DHT22;2202;50.866;12.750;2023-02-28T08:32:15;2.20;62.60
4376;DHT22;2202;50.866;12.750;2023-02-28T08:34:42;2.40;65.60
4376;DHT22;2202;50.866;12.750;2023-02-28T08:37:08;2.70;64.40
4376;DHT22;2202;50.866;12.750;2023-02-28T08:39:35;2.50;59.40
4376;DHT22;2202;50.866;12.750;2023-02-28T08:42:04;1.90;59.40
4376;DHT22;2202;50.866;12.750;2023-02-28T08:44:31;2.00;61.40
4376;DHT22;2202;50.866;12.750;2023-02-28T08:46:58;1.90;59.40
4376;DHT22;2202;50.866;12.750;2023-02-28T08:49:25;2.00;61.40
4376;DHT22;2202;50.866;12.750;2023-02-28T08:51:52;2.00;59.90
4376;DHT22;2202;50.866;12.750;2023-02-28T08:54:20;1.90;59.00
4376;DHT22;2202;50.866;12.750;2023-02-28T08:56:48;1.80;62.60
4376;DHT22;2202;50.866;12.750;2023-02-28T08:59:16;1.70;60.40
4376;DHT22;2202;50.866;12.750;2023-02-28T09:01:43;1.70;59.90
4376;DHT22;2202;50.866;12.750;2023-02-28T09:04:10;1.70;62.60
4376;DHT22;2202;50.866;12.750;2023-02-28T09:06:37;1.90;62.20
4376;DHT22;2202;50.866;12.750;2023-02-28T09:09:04;1.70;59.90
4376;DHT22;2202;50.866;12.750;2023-02-28T09:11:33;1.30;60.10
4376;DHT22;2202;50.866;12.750;2023-02-28T09:14:01;1.20;61.60
4376;DHT22;2202;50.866;12.750;2023-02-28T09:16:31;1.10;63.60
4376;DHT22;2202;50.866;12.750;2023-02-28T09:18:58;1.40;63.40
4376;DHT22;2202;50.866;12.750;2023-02-28T09:21:25;1.60;62.40
4376;DHT22;2202;50.866;12.750;2023-02-28T09:23:52;1.60;60.80
4376;DHT22;2202;50.866;12.750;2023-02-28T09:26:23;1.70;59.60
4376;DHT22;2202;50.866;12.750;2023-02-28T09:28:51;1.60;61.40
4376;DHT22;2202;50.866;12.750;2023-02-28T09:31:20;1.50;61.60
4376;DHT22;2202;50.866;12.750;2023-02-28T09:33:50;1.40;62.20
4376;DHT22;2202;50.866;12.750;2023-02-28T09:36:18;1.40;60.80
4376;DHT22;2202;50.866;12.750;2023-02-28T09:38:45;1.10;62.60
4376;DHT22;2202;50.866;12.750;2023-02-28T09:41:14;1.20;61.20
4376;DHT22;2202;50.866;12.750;2023-02-28T09:43:45;1.30;62.00
4376;DHT22;2202;50.866;12.750;2023-02-28T09:46:26;1.20;60.80
4376;DHT22;2202;50.866;12.750;2023-02-28T09:48:56;1.10;62.80
4376;DHT22;2202;50.866;12.750;2023-02-28T09:51:30;1.40;59.80
4376;DHT22;2202;50.866;12.750;2023-02-28T09:53:59;1.40;59.60
4376;DHT22;2202;50.866;12.750;2023-02-28T09:56:31;1.20;55.50
4376;DHT22;2202;50.866;12.750;2023-02-28T09:59:00;1.20;57.80
4376;DHT22;2202;50.866;12.750;2023-02-28T10:01:34;1.40;58.70
4376;DHT22;2202;50.866;12.750;2023-02-28T10:04:09;1.60;59.20
4376;DHT22;2202;50.866;12.750;2023-02-28T10:06:42;1.80;56.20
4376;DHT22;2202;50.866;12.750;2023-02-28T10:09:14;1.80;55.50
4376;DHT22;2202;50.866;12.750;2023-02-28T10:11:44;1.60;55.90
4376;DHT22;2202;50.866;12.750;2023-02-28T10:14:15;1.70;58.00
4376;DHT22;2202;50.866;12.750;2023-02-28T10:16:45;1.60;57.30
4376;DHT22;2202;50.866;12.750;2023-02-28T10:19:21;1.70;57.10
4376;DHT22;2202;50.866;12.750;2023-02-28T10:21:53;1.60;57.60
4376;DHT22;2202;50.866;12.750;2023-02-28T10:24:26;1.60;55.90
4376;DHT22;2202;50.866;12.750;2023-02-28T10:26:59;1.60;56.70
4376;DHT22;2202;50.866;12.750;2023-02-28T10:29:27;1.60;57.10
4376;DHT22;2202;50.866;12.750;2023-02-28T10:31:55;1.60;57.10
4376;DHT22;2202;50.866;12.750;2023-02-28T10:34:24;1.80;58.00
4376;DHT22;2202;50.866;12.750;2023-02-28T10:36:51;1.90;55.30
4376;DHT22;2202;50.866;12.750;2023-02-28T10:39:38;1.70;55.90
4376;DHT22;2202;50.866;12.750;2023-02-28T10:42:06;1.50;56.90
4376;DHT22;2202;50.866;12.750;2023-02-28T10:44:44;1.50;56.00
4376;DHT22;2202;50.866;12.750;2023-02-28T10:47:14;1.40;56.40
4376;DHT22;2202;50.866;12.750;2023-02-28T10:49:49;1.50;59.00
4376;DHT22;2202;50.866;12.750;2023-02-28T10:52:33;1.50;57.60
4376;DHT22;2202;50.866;12.750;2023-02-28T10:55:19;1.40;57.30
4376;DHT22;2202;50.866;12.750;2023-02-28T10:57:47;1.30;56.40
4376;DHT22;2202;50.866;12.750;2023-02-28T11:00:16;1.30;55.70
4376;DHT22;2202;50.866;12.750;2023-02-28T11:02:44;1.40;56.70
4376;DHT22;2202;50.866;12.750;2023-02-28T11:05:27;1.50;57.10
4376;DHT22;2202;50.866;12.750;2023-02-28T11:07:56;1.60;56.70
4376;DHT22;2202;50.866;12.750;2023-02-28T11:10:26;1.60;58.00
4376;DHT22;2202;50.866;12.750;2023-02-28T11:12:56;1.70;57.30
4376;DHT22;2202;50.866;12.750;2023-02-28T11:15:24;1.70;57.80
4376;DHT22;2202;50.866;12.750;2023-02-28T11:17:57;1.80;58.20
4376;DHT22;2202;50.866;12.750;2023-02-28T11:20:28;1.70;55.90
4376;DHT22;2202;50.866;12.750;2023-02-28T11:22:56;1.60;57.80
4376;DHT22;2202;50.866;12.750;2023-02-28T11:25:26;1.70;55.90
4376;DHT22;2202;50.866;12.750;2023-02-28T11:27:54;1.60;54.60
4376;DHT22;2202;50.866;12.750;2023-02-28T11:30:31;1.50;56.20
4376;DHT22;2202;50.866;12.750;2023-02-28T11:32:59;1.60;56.00
4376;DHT22;2202;50.866;12.750;2023-02-28T11:35:30;1.70;58.00
4376;DHT22;2202;50.866;12.750;2023-02-28T11:37:57;1.70;57.30
4376;DHT22;2202;50.866;12.750;2023-02-28T11:40:30;1.60;57.40
4376;DHT22;2202;50.866;12.750;2023-02-28T11:43:05;1.70;57.80
4376;DHT22;2202;50.866;12.750;2023-02-28T11:45:44;1.80;55.30
4376;DHT22;2202;50.866;12.750;2023-02-28T11:48:18;1.90;55.30
4376;DHT22;2202;50.866;12.750;2023-02-28T11:50:56;2.00;55.90
4376;DHT22;2202;50.866;12.750;2023-02-28T11:53:39;2.10;55.70
4376;DHT22;2202;50.866;12.750;2023-02-28T11:56:11;2.30;56.40
4376;DHT22;2202;50.866;12.750;2023-02-28T11:58:48;2.40;55.70
4376;DHT22;2202;50.866;12.750;2023-02-28T12:01:43;2.50;56.20
4376;DHT22;2202;50.866;12.750;2023-02-28T12:04:24;2.50;52.80
4376;DHT22;2202;50.866;12.750;2023-02-28T12:06:57;2.40;54.40
4376;DHT22;2202;50.866;12.750;2023-02-28T12:09:42;2.40;55.10
4376;DHT22;2202;50.866;12.750;2023-02-28T12:12:19;2.30;56.40
4376;DHT22;2202;50.866;12.750;2023-02-28T12:15:05;2.20;53.90
4376;DHT22;2202;50.866;12.750;2023-02-28T12:17:55;2.30;54.40
4376;DHT22;2202;50.866;12.750;2023-02-28T12:20:28;2.20;55.10
4376;DHT22;2202;50.866;12.750;2023-02-28T12:23:14;2.00;56.00
4376;DHT22;2202;50.866;12.750;2023-02-28T12:25:50;2.10;56.20
4376;DHT22;2202;50.866;12.750;2023-02-28T12:28:25;2.30;55.90
4376;DHT22;2202;50.866;12.750;2023-02-28T12:30:56;2.40;55.30
4376;DHT22;2202;50.866;12.750;2023-02-28T12:33:28;2.50;56.20
4376;DHT22;2202;50.866;12.750;2023-02-28T12:35:58;2.60;55.50
4376;DHT22;2202;50.866;12.750;2023-02-28T12:38:31;2.60;55.50
4376;DHT22;2202;50.866;12.750;2023-02-28T12:41:03;2.70;55.90
4376;DHT22;2202;50.866;12.750;2023-02-28T12:43:34;2.80;54.60
4376;DHT22;2202;50.866;12.750;2023-02-28T12:46:05;2.80;54.60
4376;DHT22;2202;50.866;12.750;2023-02-28T12:48:40;2.90;55.10
4376;DHT22;2202;50.866;12.750;2023-02-28T12:51:08;2.90;53.90
4376;DHT22;2202;50.866;12.750;2023-02-28T12:53:47;3.00;54.60
4376;DHT22;2202;50.866;12.750;2023-02-28T12:56:19;2.90;52.70
4376;DHT22;2202;50.866;12.750;2023-02-28T12:58:50;2.80;53.90
4376;DHT22;2202;50.866;12.750;2023-02-28T13:01:38;2.80;54.30
4376;DHT22;2202;50.866;12.750;2023-02-28T13:04:44;2.80;55.00
4376;DHT22;2202;50.866;12.750;2023-02-28T13:10:15;2.80;53.70
4376;DHT22;2202;50.866;12.750;2023-02-28T13:12:48;2.90;55.10
4376;DHT22;2202;50.866;12.750;2023-02-28T13:15:18;3.10;56.00
4376;DHT22;2202;50.866;12.750;2023-02-28T13:17:49;3.20;54.30
4376;DHT22;2202;50.866;12.750;2023-02-28T13:20:18;3.30;53.50
4376;DHT22;2202;50.866;12.750;2023-02-28T13:22:46;3.20;53.70
4376;DHT22;2202;50.866;12.750;2023-02-28T13:34:39;3.20;55.00
4376;DHT22;2202;50.866;12.750;2023-02-28T13:40:30;3.10;55.70
4376;DHT22;2202;50.866;12.750;2023-02-28T13:43:03;3.20;54.40
4376;DHT22;2202;50.866;12.750;2023-02-28T13:45:32;3.00;54.30
4376;DHT22;2202;50.866;12.750;2023-02-28T13:48:14;2.90;56.40
4376;DHT22;2202;50.866;12.750;2023-02-28T13:50:44;2.60;57.60
4376;DHT22;2202;50.866;12.750;2023-02-28T13:53:53;2.50;58.30
4376;DHT22;2202;50.866;12.750;2023-02-28T13:56:34;2.50;58.30
4376;DHT22;2202;50.866;12.750;2023-02-28T13:59:16;2.50;56.40
4376;DHT22;2202;50.866;12.750;2023-02-28T14:01:59;2.50;57.10
4376;DHT22;2202;50.866;12.750;2023-02-28T14:05:00;2.40;56.70
4376;DHT22;2202;50.866;12.750;2023-02-28T14:07:31;2.30;57.60
4376;DHT22;2202;50.866;12.750;2023-02-28T14:10:02;2.40;59.20
4376;DHT22;2202;50.866;12.750;2023-02-28T14:12:59;2.60;57.60
4376;DHT22;2202;50.866;12.750;2023-02-28T14:18:24;2.40;59.00
4376;DHT22;2202;50.866;12.750;2023-02-28T14:20:57;2.30;59.90
4376;DHT22;2202;50.866;12.750;2023-02-28T14:23:50;2.30;61.60
4376;DHT22;2202;50.866;12.750;2023-02-28T14:29:35;2.30;59.60
4376;DHT22;2202;50.866;12.750;2023-02-28T14:32:13;2.40;59.20
4376;DHT22;2202;50.866;12.750;2023-02-28T14:34:45;2.30;59.90
4376;DHT22;2202;50.866;12.750;2023-02-28T14:37:28;2.30;58.20
4376;DHT22;2202;50.866;12.750;2023-02-28T14:39:57;2.30;59.60
4376;DHT22;2202;50.866;12.750;2023-02-28T14:42:29;2.40;58.00
4376;DHT22;2202;50.866;12.750;2023-02-28T14:44:56;2.50;59.00
4376;DHT22;2202;50.866;12.750;2023-02-28T14:47:26;2.40;58.30
4376;DHT22;2202;50.866;12.750;2023-02-28T14:49:54;2.50;58.70
4376;DHT22;2202;50.866;12.750;2023-02-28T14:52:24;2.70;58.50
4376;DHT22;2202;50.866;12.750;2023-02-28T14:54:53;2.50;57.30
4376;DHT22;2202;50.866;12.750;2023-02-28T14:57:22;2.50;58.70
4376;DHT22;2202;50.866;12.750;2023-02-28T15:00:00;2.60;58.20
4376;DHT22;2202;50.866;12.750;2023-02-28T15:02:33;2.50;57.60
4376;DHT22;2202;50.866;12.750;2023-02-28T15:05:22;2.60;58.00
4376;DHT22;2202;50.866;12.750;2023-02-28T15:07:59;2.60;58.90
4376;DHT22;2202;50.866;12.750;2023-02-28T15:10:27;2.50;58.30
4376;DHT22;2202;50.866;12.750;2023-02-28T15:12:55;2.40;58.50
4376;DHT22;2202;50.866;12.750;2023-02-28T15:15:26;2.40;59.00
4376;DHT22;2202;50.866;12.750;2023-02-28T15:17:56;2.40;60.20
4376;DHT22;2202;50.866;12.750;2023-02-28T15:20:24;2.50;59.40
4376;DHT22;2202;50.866;12.750;2023-02-28T15:22:55;2.40;58.70
4376;DHT22;2202;50.866;12.750;2023-02-28T15:25:23;2.30;59.00
4376;DHT22;2202;50.866;12.750;2023-02-28T15:27:53;2.20;59.00
4376;DHT22;2202;50.866;12.750;2023-02-28T15:30:26;2.20;60.40
4376;DHT22;2202;50.866;12.750;2023-02-28T15:33:17;2.20;60.80
4376;DHT22;2202;50.866;12.750;2023-02-28T15:35:44;2.20;61.20
4376;DHT22;2202;50.866;12.750;2023-02-28T15:38:17;2.20;60.10
4376;DHT22;2202;50.866;12.750;2023-02-28T15:40:51;2.30;61.00
4376;DHT22;2202;50.866;12.750;2023-02-28T15:43:24;2.20;61.00
4376;DHT22;2202;50.866;12.750;2023-02-28T15:45:56;2.30;60.80
4376;DHT22;2202;50.866;12.750;2023-02-28T15:48:26;2.50;61.80
4376;DHT22;2202;50.866;12.750;2023-02-28T15:50:55;2.50;60.20
4376;DHT22;2202;50.866;12.750;2023-02-28T15:53:26;2.60;60.60
4376;DHT22;2202;50.866;12.750;2023-02-28T15:56:00;2.60;60.40
4376;DHT22;2202;50.866;12.750;2023-02-28T15:58:27;2.80;59.60
4376;DHT22;2202;50.866;12.750;2023-02-28T16:01:16;2.80;58.00
4376;DHT22;2202;50.866;12.750;2023-02-28T16:03:46;2.50;58.90
4376;DHT22;2202;50.866;12.750;2023-02-28T16:06:34;2.30;59.40
4376;DHT22;2202;50.866;12.750;2023-02-28T16:09:05;2.20;60.40
4376;DHT22;2202;50.866;12.750;2023-02-28T16:11:34;2.00;60.80
4376;DHT22;2202;50.866;12.750;2023-02-28T16:14:04;1.90;62.20
4376;DHT22;2202;50.866;12.750;2023-02-28T16:16:31;1.70;63.40
4376;DHT22;2202;50.866;12.750;2023-02-28T16:18:59;1.50;64.40
4376;DHT22;2202;50.866;12.750;2023-02-28T16:21:25;1.40;65.80
4376;DHT22;2202;50.866;12.750;2023-02-28T16:23:52;1.40;65.40
4376;DHT22;2202;50.866;12.750;2023-02-28T16:26:22;1.30;66.60
4376;DHT22;2202;50.866;12.750;2023-02-28T16:28:51;1.20;67.20
4376;DHT22;2202;50.866;12.750;2023-02-28T16:31:18;1.10;67.80
4376;DHT22;2202;50.866;12.750;2023-02-28T16:33:45;1.10;67.40
4376;DHT22;2202;50.866;12.750;2023-02-28T16:36:17;1.00;67.20
4376;DHT22;2202;50.866;12.750;2023-02-28T16:38:44;1.00;67.00
4376;DHT22;2202;50.866;12.750;2023-02-28T16:41:13;1.00;67.80
4376;DHT22;2202;50.866;12.750;2023-02-28T16:43:46;1.00;68.20